createdAt,value
2017-10-12T00:00:47.380Z,6.70
2017-10-12T00:03:14.919Z,6.90
2017-10-12T00:05:41.702Z,7.87
2017-10-12T00:08:08.505Z,6.80
2017-10-12T00:10:35.759Z,7.20
2017-10-12T00:13:02.758Z,5.90
2017-10-12T00:15:29.547Z,6.70
2017-10-12T00:17:56.369Z,7.10
2017-10-12T00:20:23.151Z,6.90
2017-10-12T00:22:50.688Z,5.90
2017-10-12T00:25:17.522Z,7.40
2017-10-12T00:27:44.288Z,5.80
2017-10-12T00:30:11.094Z,6.43
2017-10-12T00:32:37.883Z,6.90
2017-10-12T00:35:04.697Z,6.97
2017-10-12T00:37:31.477Z,6.87
2017-10-12T00:39:58.301Z,7.07
2017-10-12T00:42:25.795Z,7.33
2017-10-12T00:44:52.580Z,5.87
2017-10-12T00:47:19.376Z,6.70
2017-10-12T00:49:46.491Z,6.67
2017-10-12T00:52:13.293Z,6.70
2017-10-12T00:54:40.144Z,5.97
2017-10-12T00:57:06.919Z,5.37
2017-10-12T00:59:33.737Z,6.10
2017-10-12T01:02:00.584Z,5.87
2017-10-12T01:04:27.391Z,6.33
2017-10-12T01:06:55.316Z,6.80
2017-10-12T01:09:22.158Z,7.30
2017-10-12T01:11:48.923Z,7.37
2017-10-12T01:14:15.738Z,7.30
2017-10-12T01:16:42.581Z,6.60
2017-10-12T01:19:09.371Z,6.27
2017-10-12T01:21:36.182Z,6.57
2017-10-12T01:24:03.303Z,7.60
2017-10-12T01:26:30.543Z,8.30
2017-10-12T01:28:58.439Z,7.00
2017-10-12T01:31:25.890Z,4.37
2017-10-12T01:33:52.673Z,8.87
2017-10-12T01:36:19.467Z,8.63
2017-10-12T01:38:46.314Z,8.07
2017-10-12T01:41:13.109Z,9.03
2017-10-12T01:43:39.922Z,8.53
2017-10-12T01:46:06.762Z,6.20
2017-10-12T01:48:39.488Z,6.40
2017-10-12T01:51:06.304Z,8.80
2017-10-12T01:53:33.343Z,8.20
2017-10-12T01:56:00.103Z,3.60
2017-10-12T01:58:27.457Z,4.90
2017-10-12T02:00:54.271Z,6.83
2017-10-12T02:03:21.077Z,6.20
2017-10-12T02:05:47.925Z,6.37
2017-10-12T02:08:14.731Z,4.97
2017-10-12T02:10:41.536Z,4.03
2017-10-12T02:13:08.356Z,3.70
2017-10-12T02:15:35.915Z,5.40
2017-10-12T02:18:02.714Z,5.27
2017-10-12T02:20:30.130Z,5.53
2017-10-12T02:22:56.994Z,5.73
2017-10-12T02:25:23.809Z,5.10
2017-10-12T02:27:50.655Z,6.57
2017-10-12T02:30:17.499Z,6.30
2017-10-12T02:32:44.279Z,6.43
2017-10-12T02:35:11.095Z,7.33
2017-10-12T02:37:37.837Z,4.03
2017-10-12T02:40:04.612Z,6.13
2017-10-12T02:42:31.451Z,4.53
2017-10-12T02:44:58.569Z,6.53
2017-10-12T02:47:25.571Z,4.60
2017-10-12T02:49:52.426Z,8.07
2017-10-12T02:52:19.231Z,8.00
2017-10-12T02:54:46.020Z,7.60
2017-10-12T02:57:12.890Z,6.40
2017-10-12T02:59:39.658Z,5.50
2017-10-12T03:02:06.456Z,7.30
2017-10-12T03:04:33.271Z,6.20
2017-10-12T03:07:00.086Z,6.70
2017-10-12T03:09:26.842Z,6.47
2017-10-12T03:11:53.647Z,7.80
2017-10-12T03:14:20.400Z,5.13
2017-10-12T03:16:47.205Z,6.43
2017-10-12T03:19:14.009Z,6.87
2017-10-12T03:21:40.783Z,5.90
2017-10-12T03:24:07.531Z,5.80
2017-10-12T03:26:34.308Z,4.07
2017-10-12T03:29:01.484Z,6.10
2017-10-12T03:31:28.282Z,4.83
2017-10-12T03:33:55.129Z,4.90
2017-10-12T03:36:21.985Z,4.30
2017-10-12T03:38:48.832Z,5.43
2017-10-12T03:41:15.657Z,5.37
2017-10-12T03:43:42.479Z,5.13
2017-10-12T03:46:09.301Z,4.97
2017-10-12T03:48:36.175Z,4.37
2017-10-12T03:51:03.003Z,5.20
2017-10-12T03:53:30.180Z,4.00
2017-10-12T03:55:57.529Z,4.80
2017-10-12T03:58:24.340Z,4.67
2017-10-12T04:00:51.131Z,3.20
2017-10-12T04:03:17.979Z,3.70
2017-10-12T04:05:45.107Z,4.93
2017-10-12T04:08:11.886Z,4.57
2017-10-12T04:10:38.998Z,5.37
2017-10-12T04:13:05.817Z,3.67
2017-10-12T04:15:32.655Z,4.60
2017-10-12T04:17:59.508Z,4.87
2017-10-12T04:20:27.014Z,3.70
2017-10-12T04:22:54.855Z,4.73
2017-10-12T04:25:21.661Z,4.50
2017-10-12T04:27:48.519Z,4.00
2017-10-12T04:30:16.290Z,3.13
2017-10-12T04:32:43.110Z,3.93
2017-10-12T04:35:09.936Z,3.30
2017-10-12T04:37:37.312Z,5.00
2017-10-12T04:40:05.472Z,3.60
2017-10-12T04:42:32.250Z,3.57
2017-10-12T04:44:59.080Z,3.67
2017-10-12T04:47:25.922Z,6.10
2017-10-12T04:49:52.710Z,4.53
2017-10-12T04:52:19.519Z,3.63
2017-10-12T04:54:46.353Z,4.10
2017-10-12T04:57:13.195Z,4.83
2017-10-12T04:59:40.024Z,3.90
2017-10-12T05:02:07.187Z,3.17
2017-10-12T05:04:34.028Z,3.67
2017-10-12T05:07:01.792Z,4.00
2017-10-12T05:09:29.228Z,5.13
2017-10-12T05:11:56.035Z,4.60
2017-10-12T05:14:22.836Z,2.17
2017-10-12T05:16:49.660Z,3.67
2017-10-12T05:19:16.420Z,4.60
2017-10-12T05:21:43.550Z,3.57
2017-10-12T05:24:10.385Z,2.87
2017-10-12T05:26:37.157Z,3.10
2017-10-12T05:29:03.937Z,1.40
2017-10-12T05:31:30.736Z,4.70
2017-10-12T05:33:57.986Z,3.27
2017-10-12T05:36:24.790Z,3.07
2017-10-12T05:38:52.295Z,3.03
2017-10-12T05:41:19.102Z,3.43
2017-10-12T05:43:45.870Z,1.57
2017-10-12T05:46:12.681Z,1.93
2017-10-12T05:48:39.466Z,3.10
2017-10-12T05:51:06.287Z,3.57
2017-10-12T05:53:33.103Z,3.30
2017-10-12T05:55:59.911Z,3.10
2017-10-12T05:58:26.707Z,3.23
2017-10-12T06:00:53.586Z,3.90
2017-10-12T06:03:20.364Z,2.70
2017-10-12T06:05:47.140Z,2.63
2017-10-12T06:08:13.951Z,3.00
2017-10-12T06:10:40.762Z,4.70
2017-10-12T06:13:07.568Z,3.70
2017-10-12T06:15:34.447Z,3.60
2017-10-12T06:18:01.209Z,2.90
2017-10-12T06:20:28.038Z,2.20
2017-10-12T06:22:54.833Z,3.33
2017-10-12T06:25:21.639Z,2.00
2017-10-12T06:27:48.403Z,4.37
2017-10-12T06:30:15.233Z,1.93
2017-10-12T06:32:42.029Z,3.23
2017-10-12T06:35:08.858Z,0.70
2017-10-12T06:37:35.974Z,4.00
2017-10-12T06:40:03.401Z,4.27
2017-10-12T06:42:30.228Z,4.07
2017-10-12T06:44:57.042Z,2.97
2017-10-12T06:47:23.844Z,3.30
2017-10-12T06:49:50.607Z,4.20
2017-10-12T06:52:18.020Z,4.47
2017-10-12T06:54:44.789Z,5.67
2017-10-12T06:57:11.547Z,2.97
2017-10-12T06:59:38.384Z,1.67
2017-10-12T07:02:05.157Z,3.30
2017-10-12T07:04:31.935Z,3.13
2017-10-12T07:06:58.733Z,3.67
2017-10-12T07:09:26.245Z,1.43
2017-10-12T07:11:53.392Z,3.23
2017-10-12T07:14:20.186Z,3.77
2017-10-12T07:16:47.370Z,1.97
2017-10-12T07:19:14.196Z,4.20
2017-10-12T07:21:41.267Z,1.23
2017-10-12T07:24:08.035Z,2.00
2017-10-12T07:26:34.876Z,5.17
2017-10-12T07:29:01.711Z,3.33
2017-10-12T07:31:29.503Z,2.73
2017-10-12T07:33:56.913Z,1.73
2017-10-12T07:36:23.757Z,2.20
2017-10-12T07:38:51.215Z,2.20
2017-10-12T07:41:17.992Z,1.57
2017-10-12T07:43:45.162Z,1.90
2017-10-12T07:46:12.541Z,0.87
2017-10-12T07:48:39.522Z,2.70
2017-10-12T07:51:06.291Z,2.83
2017-10-12T07:53:33.261Z,3.40
2017-10-12T07:56:00.059Z,2.30
2017-10-12T07:58:26.914Z,1.07
2017-10-12T08:00:53.695Z,2.13
2017-10-12T08:03:20.471Z,1.90
2017-10-12T08:05:47.269Z,2.30
2017-10-12T08:08:14.657Z,1.77
2017-10-12T08:10:41.421Z,3.07
2017-10-12T08:13:08.268Z,2.03
2017-10-12T08:15:35.052Z,2.60
2017-10-12T08:18:02.580Z,3.00
2017-10-12T08:20:29.407Z,3.67
2017-10-12T08:22:56.804Z,2.27
2017-10-12T08:25:23.647Z,2.60
2017-10-12T08:27:50.439Z,1.87
2017-10-12T08:30:17.235Z,3.20
2017-10-12T08:32:44.026Z,1.20
2017-10-12T08:35:11.546Z,2.10
2017-10-12T08:37:38.319Z,2.17
2017-10-12T08:40:05.435Z,1.60
2017-10-12T08:42:32.262Z,1.80
2017-10-12T08:44:59.035Z,2.43
2017-10-12T08:47:25.975Z,4.10
2017-10-12T08:49:52.838Z,2.67
2017-10-12T08:52:19.976Z,1.37
2017-10-12T08:54:46.741Z,1.33
2017-10-12T08:57:13.545Z,1.77
2017-10-12T08:59:40.303Z,1.70
2017-10-12T09:02:07.116Z,2.30
2017-10-12T09:04:33.916Z,1.90
2017-10-12T09:07:00.702Z,2.27
2017-10-12T09:09:27.460Z,1.13
2017-10-12T09:11:54.270Z,2.07
2017-10-12T09:14:21.048Z,1.80
2017-10-12T09:16:47.869Z,1.83
2017-10-12T09:19:14.718Z,1.73
2017-10-12T09:21:41.498Z,1.57
2017-10-12T09:24:08.255Z,1.50
2017-10-12T09:26:35.066Z,1.00
2017-10-12T09:29:01.889Z,0.77
2017-10-12T09:31:29.498Z,2.07
2017-10-12T09:33:56.361Z,1.63
2017-10-12T09:36:23.947Z,2.70
2017-10-12T09:38:50.763Z,2.20
2017-10-12T09:41:17.590Z,2.07
2017-10-12T09:43:45.147Z,1.70
2017-10-12T09:46:12.795Z,2.73
2017-10-12T09:48:39.636Z,2.47
2017-10-12T09:51:06.434Z,2.30
2017-10-12T09:53:33.278Z,2.90
2017-10-12T09:56:00.133Z,2.67
2017-10-12T09:58:26.978Z,1.80
2017-10-12T10:00:53.770Z,3.07
2017-10-12T10:03:20.603Z,1.30
2017-10-12T10:05:47.424Z,2.20
2017-10-12T10:08:14.242Z,1.17
2017-10-12T10:10:41.761Z,2.17
2017-10-12T10:13:08.539Z,2.33
2017-10-12T10:15:35.344Z,2.00
2017-10-12T10:18:02.159Z,2.57
2017-10-12T10:20:28.962Z,1.90
2017-10-12T10:22:55.790Z,2.67
2017-10-12T10:25:22.579Z,2.50
2017-10-12T10:27:49.625Z,1.83
2017-10-12T10:30:16.645Z,2.47
2017-10-12T10:32:43.467Z,2.10
2017-10-12T10:35:10.828Z,1.93
2017-10-12T10:37:37.581Z,1.20
2017-10-12T10:40:04.389Z,2.50
2017-10-12T10:42:31.332Z,2.20
2017-10-12T10:44:58.112Z,1.60
2017-10-12T10:47:24.944Z,2.10
2017-10-12T10:49:51.713Z,1.57
2017-10-12T10:52:20.674Z,1.83
2017-10-12T10:54:47.524Z,2.10
2017-10-12T10:57:14.366Z,2.50
2017-10-12T10:59:41.144Z,2.33
2017-10-12T11:02:08.034Z,2.73
2017-10-12T11:04:34.805Z,1.50
2017-10-12T11:07:02.287Z,1.10
2017-10-12T11:09:29.108Z,1.77
2017-10-12T11:11:55.891Z,2.10
2017-10-12T11:14:22.661Z,2.60
2017-10-12T11:16:49.463Z,2.07
2017-10-12T11:19:16.525Z,2.33
2017-10-12T11:21:43.294Z,2.00
2017-10-12T11:24:10.671Z,2.33
2017-10-12T11:26:37.464Z,2.07
2017-10-12T11:29:04.247Z,2.10
2017-10-12T11:31:31.074Z,1.07
2017-10-12T11:33:57.857Z,2.67
2017-10-12T11:36:24.615Z,1.80
2017-10-12T11:38:51.410Z,2.00
2017-10-12T11:41:18.213Z,3.67
2017-10-12T11:43:45.004Z,1.63
2017-10-12T11:46:11.823Z,1.50
2017-10-12T11:48:38.598Z,1.40
2017-10-12T11:51:05.386Z,2.27
2017-10-12T11:53:32.184Z,1.83
2017-10-12T11:55:58.966Z,1.70
2017-10-12T11:58:25.757Z,0.60
2017-10-12T12:00:52.575Z,2.53
2017-10-12T12:03:19.616Z,1.83
2017-10-12T12:05:46.440Z,1.87
2017-10-12T12:08:13.260Z,2.27
2017-10-12T12:10:40.343Z,1.30
2017-10-12T12:13:07.123Z,1.83
2017-10-12T12:15:33.979Z,1.77
2017-10-12T12:18:00.753Z,1.90
2017-10-12T12:20:27.531Z,1.67
2017-10-12T12:22:54.376Z,2.00
2017-10-12T12:25:21.424Z,2.20
2017-10-12T12:27:48.184Z,1.80
2017-10-12T12:30:15.095Z,2.23
2017-10-12T12:32:41.860Z,1.70
2017-10-12T12:35:08.716Z,1.70
2017-10-12T12:37:35.538Z,2.87
2017-10-12T12:40:02.305Z,2.50
2017-10-12T12:42:29.111Z,2.10
2017-10-12T12:44:55.929Z,1.90
2017-10-12T12:47:22.699Z,2.40
2017-10-12T12:49:49.462Z,1.13
2017-10-12T12:52:16.292Z,2.33
2017-10-12T12:54:43.099Z,2.20
2017-10-12T12:57:09.868Z,1.27
2017-10-12T12:59:37.357Z,2.00
2017-10-12T13:02:04.119Z,2.33
2017-10-12T13:04:30.892Z,4.00
2017-10-12T13:06:58.032Z,3.27
2017-10-12T13:09:24.792Z,1.50
2017-10-12T13:11:52.043Z,2.00
2017-10-12T13:14:18.845Z,1.87
2017-10-12T13:16:45.620Z,1.20
2017-10-12T13:19:12.605Z,0.67
2017-10-12T13:21:39.397Z,3.30
2017-10-12T13:24:06.166Z,1.33
2017-10-12T13:26:32.933Z,1.23
2017-10-12T13:28:59.751Z,2.30
2017-10-12T13:31:26.848Z,1.60
2017-10-12T13:33:53.608Z,1.17
2017-10-12T13:36:20.400Z,1.97
2017-10-12T13:38:47.168Z,2.10
2017-10-12T13:41:13.959Z,1.47
2017-10-12T13:43:40.798Z,1.30
2017-10-12T13:46:07.602Z,1.90
2017-10-12T13:48:34.427Z,1.67
2017-10-12T13:51:01.255Z,2.63
2017-10-12T13:53:28.019Z,1.63
2017-10-12T13:55:54.811Z,2.57
2017-10-12T13:58:21.628Z,2.10
2017-10-12T14:00:48.416Z,1.63
2017-10-12T14:03:16.181Z,2.97
2017-10-12T14:05:43.027Z,2.80
2017-10-12T14:08:09.820Z,1.70
2017-10-12T14:10:37.198Z,2.20
2017-10-12T14:13:04.011Z,1.60
2017-10-12T14:15:31.621Z,1.90
2017-10-12T14:17:58.406Z,1.80
2017-10-12T14:20:25.222Z,3.43
2017-10-12T14:22:51.979Z,1.60
2017-10-12T14:25:18.880Z,2.17
2017-10-12T14:27:45.694Z,2.50
2017-10-12T14:30:12.468Z,3.07
2017-10-12T14:32:39.244Z,1.63
2017-10-12T14:35:06.041Z,1.43
2017-10-12T14:37:32.800Z,2.10
2017-10-12T14:39:59.572Z,3.10
2017-10-12T14:42:26.476Z,1.30
2017-10-12T14:44:53.568Z,2.07
2017-10-12T14:47:20.374Z,2.03
2017-10-12T14:49:47.175Z,1.07
2017-10-12T14:52:14.689Z,2.03
2017-10-12T14:54:41.477Z,1.90
2017-10-12T14:57:08.362Z,1.40
2017-10-12T14:59:35.198Z,1.17
2017-10-12T15:02:02.211Z,2.20
2017-10-12T15:04:29.780Z,2.30
2017-10-12T15:06:56.554Z,2.73
2017-10-12T15:09:23.321Z,2.37
2017-10-12T15:11:50.114Z,1.73
2017-10-12T15:14:16.888Z,1.63
2017-10-12T15:16:43.663Z,1.93
2017-10-12T15:19:10.479Z,1.20
2017-10-12T15:21:37.294Z,1.40
2017-10-12T15:24:04.060Z,1.33
2017-10-12T15:26:31.436Z,1.30
2017-10-12T15:28:58.211Z,1.87
2017-10-12T15:31:26.326Z,3.47
2017-10-12T15:33:53.131Z,1.50
2017-10-12T15:36:19.898Z,1.90
2017-10-12T15:38:46.693Z,0.80
2017-10-12T15:41:13.534Z,1.77
2017-10-12T15:43:40.325Z,2.97
2017-10-12T15:46:07.148Z,1.97
2017-10-12T15:48:34.122Z,1.10
2017-10-12T15:51:00.993Z,1.70
2017-10-12T15:53:28.058Z,2.10
2017-10-12T15:55:54.884Z,1.90
2017-10-12T15:58:22.392Z,0.93
2017-10-12T16:00:49.156Z,1.57
2017-10-12T16:03:15.990Z,2.30
2017-10-12T16:05:42.796Z,1.90
2017-10-12T16:08:09.571Z,2.20
2017-10-12T16:10:36.412Z,1.73
2017-10-12T16:13:03.235Z,3.20
2017-10-12T16:15:30.307Z,2.07
2017-10-12T16:17:57.133Z,2.87
2017-10-12T16:20:23.896Z,1.63
2017-10-12T16:22:57.675Z,1.20
2017-10-12T16:25:17.532Z,2.00
2017-10-12T16:27:44.293Z,4.37
2017-10-12T16:30:11.084Z,2.27
2017-10-12T16:33:07.273Z,3.10
2017-10-12T16:37:32.363Z,0.77
2017-10-12T16:39:59.246Z,1.83
2017-10-12T16:42:26.496Z,2.80
2017-10-12T16:44:53.271Z,1.93
2017-10-12T16:47:20.741Z,2.17
2017-10-12T16:49:47.507Z,1.77
2017-10-12T16:52:14.319Z,1.90
2017-10-12T16:54:41.123Z,2.03
2017-10-12T16:57:08.386Z,2.20
2017-10-12T16:59:35.237Z,3.47
2017-10-12T17:02:02.055Z,2.63
2017-10-12T17:04:28.849Z,2.47
2017-10-12T17:06:55.638Z,3.60
2017-10-12T17:09:22.853Z,1.87
2017-10-12T17:11:49.657Z,2.23
2017-10-12T17:14:17.274Z,1.40
2017-10-12T17:16:44.086Z,2.73
2017-10-12T17:19:10.874Z,1.93
2017-10-12T17:21:37.705Z,2.23
2017-10-12T17:24:05.271Z,2.93
2017-10-12T17:26:32.025Z,2.43
2017-10-12T17:28:58.792Z,2.33
2017-10-12T17:31:25.610Z,2.37
2017-10-12T17:33:52.380Z,2.43
2017-10-12T17:36:19.166Z,2.30
2017-10-12T17:38:45.972Z,1.90
2017-10-12T17:41:12.862Z,2.50
2017-10-12T17:43:39.914Z,2.93
2017-10-12T17:46:06.715Z,2.70
2017-10-12T17:48:33.490Z,1.93
2017-10-12T17:51:00.312Z,3.30
2017-10-12T17:53:27.131Z,2.47
2017-10-12T17:55:53.935Z,2.47
2017-10-12T17:58:20.698Z,2.13
2017-10-12T18:00:47.493Z,3.03
2017-10-12T18:03:14.248Z,2.50
2017-10-12T18:05:41.036Z,2.93
2017-10-12T18:08:07.831Z,2.70
2017-10-12T18:10:34.624Z,3.07
2017-10-12T18:13:01.426Z,2.30
2017-10-12T18:15:28.541Z,1.90
2017-10-12T18:17:55.875Z,2.90
2017-10-12T18:20:22.644Z,2.97
2017-10-12T18:22:49.472Z,2.43
2017-10-12T18:25:16.235Z,2.17
2017-10-12T18:27:42.991Z,2.57
2017-10-12T18:30:10.145Z,2.37
2017-10-12T18:32:36.892Z,2.50
2017-10-12T18:35:03.872Z,1.67
2017-10-12T18:37:30.678Z,3.47
2017-10-12T18:39:57.450Z,2.10
2017-10-12T18:42:24.263Z,3.70
2017-10-12T18:47:18.426Z,1.73
2017-10-12T18:49:45.302Z,1.90
2017-10-12T18:52:12.801Z,2.13
2017-10-12T18:54:39.596Z,2.60
2017-10-12T18:57:06.360Z,2.50
2017-10-12T18:59:33.186Z,2.50
2017-10-12T19:01:59.969Z,1.80
2017-10-12T19:04:26.781Z,3.30
2017-10-12T19:06:53.592Z,2.10
2017-10-12T19:09:20.366Z,2.73
2017-10-12T19:11:47.399Z,2.13
2017-10-12T19:14:14.214Z,1.37
2017-10-12T19:16:41.019Z,0.90
2017-10-12T19:19:07.842Z,2.70
2017-10-12T19:21:34.735Z,2.40
2017-10-12T19:24:01.877Z,2.10
2017-10-12T19:26:28.781Z,2.37
2017-10-12T19:28:55.621Z,2.77
2017-10-12T19:31:22.824Z,2.80
2017-10-12T19:33:49.988Z,2.47
2017-10-12T19:36:16.828Z,3.70
2017-10-12T19:38:43.661Z,3.03
2017-10-12T19:43:37.353Z,2.17
2017-10-12T19:46:04.857Z,1.80
2017-10-12T19:48:31.804Z,3.40
2017-10-12T19:51:28.777Z,1.83
2017-10-12T19:53:26.976Z,2.43
2017-10-12T19:55:54.027Z,4.03
2017-10-12T19:58:21.697Z,2.67
2017-10-12T20:00:48.758Z,2.30
2017-10-12T20:03:15.539Z,2.70
2017-10-12T20:05:42.393Z,1.80
2017-10-12T20:08:09.208Z,2.67
2017-10-12T20:10:36.182Z,2.30
2017-10-12T20:13:03.246Z,2.33
2017-10-12T20:15:30.018Z,2.37
2017-10-12T20:17:56.806Z,2.90
2017-10-12T20:20:23.649Z,2.63
2017-10-12T20:22:50.420Z,2.80
2017-10-12T20:25:17.201Z,2.10
2017-10-12T20:27:44.024Z,3.07
2017-10-12T20:30:10.938Z,2.50
2017-10-12T20:32:37.726Z,1.77
2017-10-12T20:35:04.731Z,2.70
2017-10-12T20:37:32.181Z,3.40
2017-10-12T20:39:58.963Z,1.97
2017-10-12T20:42:25.768Z,3.27
2017-10-12T20:44:53.412Z,2.30
2017-10-12T20:47:20.318Z,2.37
2017-10-12T20:49:47.152Z,2.90
2017-10-12T20:52:13.994Z,3.10
2017-10-12T20:57:08.378Z,2.20
2017-10-12T20:59:35.152Z,2.07
2017-10-12T21:02:02.034Z,2.13
2017-10-12T21:04:28.822Z,2.60
2017-10-12T21:06:55.605Z,2.90
2017-10-12T21:09:22.347Z,2.30
2017-10-12T21:11:49.166Z,2.23
2017-10-12T21:14:15.927Z,2.30
2017-10-12T21:16:42.746Z,1.63
2017-10-12T21:19:09.563Z,3.80
2017-10-12T21:21:36.361Z,2.73
2017-10-12T21:24:03.162Z,2.67
2017-10-12T21:29:03.192Z,3.03
2017-10-12T21:31:30.017Z,1.43
2017-10-12T21:33:56.798Z,1.90
2017-10-12T21:36:23.553Z,3.83
2017-10-12T21:38:50.365Z,2.60
2017-10-12T21:41:17.619Z,2.50
2017-10-12T21:43:44.398Z,3.90
2017-10-12T21:46:11.177Z,3.40
2017-10-12T21:48:37.935Z,2.90
2017-10-12T21:51:04.718Z,2.63
2017-10-12T21:53:31.499Z,2.33
2017-10-12T21:55:58.266Z,1.97
2017-10-12T21:58:25.422Z,3.07
2017-10-12T22:00:52.840Z,2.07
2017-10-12T22:03:19.622Z,2.40
2017-10-12T22:05:46.421Z,2.73
2017-10-12T22:08:13.227Z,2.80
2017-10-12T22:10:40.022Z,2.80
2017-10-12T22:13:06.780Z,3.10
2017-10-12T22:15:33.623Z,3.27
2017-10-12T22:18:00.411Z,2.00
2017-10-12T22:20:27.205Z,2.77
2017-10-12T22:22:54.047Z,2.57
2017-10-12T22:25:20.807Z,3.43
2017-10-12T22:27:47.601Z,4.50
2017-10-12T22:30:14.443Z,2.60
2017-10-12T22:32:42.359Z,2.43
2017-10-12T22:35:09.189Z,2.17
2017-10-12T22:37:36.102Z,2.90
2017-10-12T22:40:02.882Z,3.20
2017-10-12T22:42:29.723Z,3.00
2017-10-12T22:44:56.558Z,2.57
2017-10-12T22:47:24.330Z,2.23
2017-10-12T22:49:51.896Z,1.60
2017-10-12T22:52:18.999Z,2.23
2017-10-12T22:54:46.296Z,4.17
2017-10-12T22:57:13.126Z,2.10
2017-10-12T22:59:40.546Z,2.53
2017-10-12T23:02:07.697Z,2.40
2017-10-12T23:04:34.517Z,3.80
2017-10-12T23:07:01.801Z,2.17
2017-10-12T23:09:28.599Z,2.27
2017-10-12T23:11:56.370Z,3.10
2017-10-12T23:14:23.190Z,2.30
2017-10-12T23:16:49.993Z,2.40
2017-10-12T23:19:16.766Z,2.43
2017-10-12T23:21:43.593Z,2.23
2017-10-12T23:24:10.374Z,1.80
2017-10-12T23:26:37.555Z,2.07
2017-10-12T23:29:04.365Z,2.90
2017-10-12T23:31:31.335Z,2.30
2017-10-12T23:33:58.111Z,2.30
2017-10-12T23:36:24.954Z,2.50
2017-10-12T23:38:51.759Z,2.63
2017-10-12T23:41:19.251Z,2.33
2017-10-12T23:43:46.074Z,2.57
2017-10-12T23:46:12.858Z,2.57
2017-10-12T23:48:39.678Z,2.00
2017-10-12T23:51:07.441Z,2.03
2017-10-12T23:53:34.230Z,2.30
2017-10-12T23:56:01.252Z,2.30
2017-10-12T23:58:28.070Z,2.60
